createdAt,value
2023-02-08T00:01:47.521Z,0.03
2023-02-08T00:04:18.329Z,0.05
2023-02-08T00:06:49.219Z,0.10
2023-02-08T00:09:21.369Z,0.10
2023-02-08T00:11:52.286Z,0.00
2023-02-08T00:14:23.129Z,0.20
2023-02-08T00:16:53.845Z,0.10
2023-02-08T00:19:24.751Z,0.10
2023-02-08T00:21:55.425Z,0.00
2023-02-08T00:24:26.115Z,0.10
2023-02-08T00:26:57.948Z,0.00
2023-02-08T00:29:28.841Z,0.00
2023-02-08T00:32:01.723Z,0.20
2023-02-08T00:34:32.848Z,0.00
2023-02-08T00:37:04.028Z,0.00
2023-02-08T00:39:36.943Z,0.00
2023-02-08T00:42:08.131Z,0.00
2023-02-08T00:44:39.115Z,0.30
2023-02-08T00:47:10.170Z,0.00
2023-02-08T00:49:41.234Z,0.05
2023-02-08T00:54:56.731Z,0.10
2023-02-08T00:57:27.801Z,0.10
2023-02-08T00:59:58.674Z,0.10
2023-02-08T01:02:32.329Z,0.00
2023-02-08T01:05:03.280Z,0.08
2023-02-08T01:07:34.187Z,0.00
2023-02-08T01:10:05.610Z,0.00
2023-02-08T01:12:38.895Z,0.10
2023-02-08T01:15:12.229Z,0.00
2023-02-08T01:17:43.724Z,0.17
2023-02-08T01:20:15.180Z,0.00
2023-02-08T01:22:45.901Z,0.10
2023-02-08T01:25:16.961Z,0.10
2023-02-08T01:27:47.717Z,0.05
2023-02-08T01:30:20.088Z,0.00
2023-02-08T01:32:50.733Z,0.10
2023-02-08T01:35:22.659Z,0.00
2023-02-08T01:37:53.637Z,0.00
2023-02-08T01:40:28.849Z,0.10
2023-02-08T01:42:59.539Z,0.05
2023-02-08T01:45:33.756Z,0.00
2023-02-08T01:48:27.241Z,0.00
2023-02-08T01:51:11.759Z,0.08
2023-02-08T01:53:44.115Z,0.10
2023-02-08T01:56:38.114Z,0.00
2023-02-08T01:59:19.778Z,0.08
2023-02-08T02:01:56.187Z,0.00
2023-02-08T02:04:28.301Z,0.10
2023-02-08T02:07:03.354Z,0.03
2023-02-08T02:10:01.149Z,0.10
2023-02-08T02:12:34.934Z,0.10
2023-02-08T02:15:07.105Z,0.10
2023-02-08T02:17:41.286Z,0.10
2023-02-08T02:20:24.450Z,0.08
2023-02-08T02:23:13.546Z,0.10
2023-02-08T02:26:12.582Z,0.13
2023-02-08T02:29:16.283Z,0.10
2023-02-08T02:32:02.952Z,0.00
2023-02-08T02:35:08.931Z,0.10
2023-02-08T02:38:10.401Z,0.00
2023-02-08T02:41:00.979Z,0.10
2023-02-08T02:43:50.228Z,0.00
2023-02-08T02:46:50.884Z,0.03
2023-02-08T02:49:34.059Z,0.05
2023-02-08T02:52:08.155Z,0.20
2023-02-08T02:54:47.044Z,0.00
2023-02-08T02:57:24.270Z,0.15
2023-02-08T02:59:55.483Z,0.10
2023-02-08T03:02:27.530Z,0.10
2023-02-08T03:05:01.140Z,0.10
2023-02-08T03:07:41.094Z,0.10
2023-02-08T03:10:46.332Z,0.00
2023-02-08T03:13:52.119Z,0.00
2023-02-08T03:16:41.022Z,0.10
2023-02-08T03:19:14.833Z,0.10
2023-02-08T03:22:15.013Z,0.00
2023-02-08T03:25:05.702Z,0.10
2023-02-08T03:28:11.755Z,0.05
2023-02-08T03:31:06.440Z,0.10
2023-02-08T03:33:44.067Z,0.10
2023-02-08T03:36:36.947Z,0.10
2023-02-08T03:39:13.499Z,0.10
2023-02-08T03:41:47.730Z,0.10
2023-02-08T03:44:35.826Z,0.15
2023-02-08T03:47:26.754Z,0.10
2023-02-08T03:50:01.066Z,0.20
2023-02-08T03:52:35.340Z,0.10
2023-02-08T03:55:12.765Z,0.10
2023-02-08T03:57:55.361Z,0.10
2023-02-08T04:00:29.266Z,0.10
2023-02-08T04:03:09.479Z,0.10
2023-02-08T04:05:41.777Z,0.10
2023-02-08T04:08:13.083Z,0.10
2023-02-08T04:10:51.020Z,0.50
2023-02-08T04:13:21.982Z,0.20
2023-02-08T04:15:52.860Z,0.10
2023-02-08T04:18:23.839Z,0.00
2023-02-08T04:20:54.711Z,0.05
2023-02-08T04:23:26.925Z,0.10
2023-02-08T04:25:57.900Z,0.10
2023-02-08T04:28:30.147Z,0.10
2023-02-08T04:31:00.933Z,0.10
2023-02-08T04:33:31.934Z,0.13
2023-02-08T04:36:02.710Z,0.10
2023-02-08T04:38:35.299Z,0.10
2023-02-08T04:41:07.682Z,0.10
2023-02-08T04:43:38.848Z,0.10
2023-02-08T04:46:09.928Z,0.10
2023-02-08T04:48:42.117Z,4.97
2023-02-08T04:51:12.806Z,0.20
2023-02-08T04:53:43.586Z,0.30
2023-02-08T04:56:14.228Z,0.20
2023-02-08T04:58:45.089Z,0.13
2023-02-08T05:01:17.820Z,0.22
2023-02-08T05:03:49.247Z,0.20
2023-02-08T05:06:20.044Z,0.20
2023-02-08T05:08:50.707Z,0.15
2023-02-08T05:11:26.818Z,0.22
2023-02-08T05:13:58.023Z,0.20
2023-02-08T05:16:28.851Z,0.22
2023-02-08T05:19:00.310Z,0.20
2023-02-08T05:21:32.156Z,0.20
2023-02-08T05:24:02.417Z,0.28
2023-02-08T05:26:32.879Z,0.20
2023-02-08T05:29:03.503Z,0.22
2023-02-08T05:31:38.389Z,0.28
2023-02-08T05:34:09.402Z,0.32
2023-02-08T05:36:40.027Z,0.20
2023-02-08T05:39:10.871Z,0.25
2023-02-08T05:41:41.423Z,0.30
2023-02-08T05:44:12.515Z,0.30
2023-02-08T05:46:42.827Z,0.50
2023-02-08T05:49:13.667Z,0.40
2023-02-08T05:51:44.369Z,0.40
2023-02-08T05:54:15.459Z,0.30
2023-02-08T05:56:47.977Z,0.30
2023-02-08T05:59:18.687Z,0.30
2023-02-08T06:01:50.536Z,0.40
2023-02-08T06:04:21.892Z,0.30
2023-02-08T06:06:52.697Z,0.50
2023-02-08T06:09:23.669Z,0.45
2023-02-08T06:11:54.255Z,0.38
2023-02-08T06:14:25.726Z,0.50
2023-02-08T06:16:56.831Z,0.40
2023-02-08T06:19:27.475Z,0.45
2023-02-08T06:21:58.678Z,0.75
2023-02-08T06:24:29.649Z,0.50
2023-02-08T06:27:00.591Z,0.50
2023-02-08T06:29:31.288Z,0.40
2023-02-08T06:32:02.055Z,0.60
2023-02-08T06:34:33.056Z,0.40
2023-02-08T06:37:04.392Z,0.50
2023-02-08T06:39:35.296Z,0.50
2023-02-08T06:42:05.609Z,0.50
2023-02-08T06:44:36.276Z,0.40
2023-02-08T06:47:07.555Z,0.60
2023-02-08T06:49:39.213Z,0.60
2023-02-08T06:52:10.113Z,0.70
2023-02-08T06:54:41.005Z,0.70
2023-02-08T06:57:15.121Z,0.80
2023-02-08T06:59:45.557Z,0.52
2023-02-08T07:02:18.526Z,0.82
2023-02-08T07:04:49.960Z,0.60
2023-02-08T07:07:20.990Z,0.60
2023-02-08T07:09:52.558Z,0.60
2023-02-08T07:12:23.361Z,0.77
2023-02-08T07:14:54.788Z,0.50
2023-02-08T07:17:25.556Z,0.70
2023-02-08T07:19:55.955Z,0.55
2023-02-08T07:22:26.483Z,0.50
2023-02-08T07:24:57.484Z,0.50
2023-02-08T07:27:27.790Z,0.75
2023-02-08T07:29:58.200Z,0.52
2023-02-08T07:32:29.377Z,0.52
2023-02-08T07:35:00.453Z,0.60
2023-02-08T07:37:31.704Z,0.68
2023-02-08T07:40:02.827Z,0.40
2023-02-08T07:42:34.500Z,0.65
2023-02-08T07:45:06.660Z,0.60
2023-02-08T07:47:37.338Z,0.68
2023-02-08T07:50:09.558Z,0.50
2023-02-08T07:52:41.210Z,0.60
2023-02-08T07:55:14.076Z,0.80
2023-02-08T07:57:45.452Z,0.52
2023-02-08T08:00:17.872Z,0.60
2023-02-08T08:02:48.545Z,0.52
2023-02-08T08:05:19.654Z,0.70
2023-02-08T08:07:50.215Z,0.40
2023-02-08T08:10:20.621Z,0.82
2023-02-08T08:12:50.877Z,0.70
2023-02-08T08:15:21.570Z,0.95
2023-02-08T08:17:52.172Z,0.60
2023-02-08T08:20:23.309Z,0.55
2023-02-08T08:22:53.617Z,0.50
2023-02-08T08:25:24.234Z,0.70
2023-02-08T08:27:54.915Z,0.50
2023-02-08T08:30:26.429Z,1.50
2023-02-08T08:32:57.170Z,0.47
2023-02-08T08:35:27.768Z,0.57
2023-02-08T08:37:58.451Z,0.85
2023-02-08T08:40:31.475Z,0.68
2023-02-08T08:43:02.116Z,0.50
2023-02-08T08:45:32.714Z,0.50
2023-02-08T08:48:04.066Z,0.70
2023-02-08T08:50:34.794Z,0.60
2023-02-08T08:53:05.630Z,0.80
2023-02-08T08:55:39.022Z,0.70
2023-02-08T08:58:09.825Z,1.10
2023-02-08T09:00:41.776Z,0.60
2023-02-08T09:03:13.008Z,1.00
2023-02-08T09:05:43.829Z,0.68
2023-02-08T09:08:26.169Z,0.70
2023-02-08T09:10:57.616Z,0.70
2023-02-08T09:13:28.644Z,0.70
2023-02-08T09:16:02.396Z,1.38
2023-02-08T09:18:33.453Z,0.70
2023-02-08T09:21:10.292Z,0.50
2023-02-08T09:23:41.599Z,0.65
2023-02-08T09:26:15.282Z,0.90
2023-02-08T09:28:46.457Z,1.25
2023-02-08T09:31:26.155Z,0.60
2023-02-08T09:33:59.548Z,0.85
2023-02-08T09:36:36.393Z,1.55
2023-02-08T09:39:19.727Z,0.73
2023-02-08T09:42:04.881Z,0.90
2023-02-08T09:45:17.112Z,0.82
2023-02-08T09:48:00.519Z,0.88
2023-02-08T09:50:45.227Z,0.80
2023-02-08T09:53:25.348Z,1.05
2023-02-08T09:56:06.233Z,1.40
2023-02-08T09:58:47.565Z,1.02
2023-02-08T10:01:25.394Z,1.27
2023-02-08T10:04:26.407Z,1.10
2023-02-08T10:06:57.397Z,1.08
2023-02-08T10:09:29.919Z,1.10
2023-02-08T10:12:27.926Z,1.10
2023-02-08T10:15:23.572Z,0.98
2023-02-08T10:17:59.157Z,1.00
2023-02-08T10:20:43.328Z,1.15
2023-02-08T10:23:40.153Z,1.23
2023-02-08T10:26:11.780Z,0.95
2023-02-08T10:29:04.653Z,0.85
2023-02-08T10:31:47.215Z,1.77
2023-02-08T10:34:38.613Z,1.15
2023-02-08T10:37:40.882Z,1.33
2023-02-08T10:40:27.060Z,1.08
2023-02-08T10:43:21.812Z,1.10
2023-02-08T10:46:04.339Z,0.90
2023-02-08T10:48:46.324Z,1.20
2023-02-08T10:51:25.004Z,1.00
2023-02-08T10:53:56.243Z,1.10
2023-02-08T10:56:48.730Z,1.10
2023-02-08T10:59:33.648Z,1.02
2023-02-08T11:02:04.315Z,1.42
2023-02-08T11:04:34.769Z,1.35
2023-02-08T11:07:23.171Z,0.90
2023-02-08T11:09:55.303Z,1.27
2023-02-08T11:12:26.715Z,1.25
2023-02-08T11:14:57.818Z,1.17
2023-02-08T11:17:32.394Z,1.02
2023-02-08T11:20:04.447Z,1.08
2023-02-08T11:22:36.195Z,1.00
2023-02-08T11:25:09.699Z,0.90
2023-02-08T11:27:50.387Z,0.75
2023-02-08T11:30:27.611Z,0.88
2023-02-08T11:33:20.009Z,0.75
2023-02-08T11:36:16.966Z,0.60
2023-02-08T11:38:47.704Z,0.60
2023-02-08T11:41:22.942Z,0.80
2023-02-08T11:44:08.343Z,0.90
2023-02-08T11:46:43.742Z,0.73
2023-02-08T11:49:28.659Z,0.75
2023-02-08T11:51:59.960Z,0.90
2023-02-08T11:54:45.934Z,0.50
2023-02-08T11:57:19.474Z,0.60
2023-02-08T11:59:51.795Z,0.90
2023-02-08T12:02:42.733Z,0.60
2023-02-08T12:05:18.003Z,1.02
2023-02-08T12:07:58.156Z,0.60
2023-02-08T12:10:44.812Z,0.70
2023-02-08T12:13:18.866Z,0.68
2023-02-08T12:16:13.556Z,0.80
2023-02-08T12:19:01.505Z,0.70
2023-02-08T12:21:50.329Z,0.70
2023-02-08T12:24:57.809Z,0.63
2023-02-08T12:27:51.837Z,0.80
2023-02-08T12:30:42.717Z,0.93
2023-02-08T12:33:31.700Z,0.75
2023-02-08T12:36:33.823Z,0.98
2023-02-08T12:39:46.201Z,0.90
2023-02-08T12:42:33.222Z,0.90
2023-02-08T12:45:23.710Z,0.73
2023-02-08T12:48:33.986Z,0.98
2023-02-08T12:51:25.994Z,0.80
2023-02-08T12:54:05.651Z,1.10
2023-02-08T12:56:43.539Z,0.77
2023-02-08T12:59:40.141Z,0.80
2023-02-08T13:02:33.743Z,0.98
2023-02-08T13:05:09.709Z,1.30
2023-02-08T13:07:45.159Z,0.70
2023-02-08T13:10:41.563Z,0.80
2023-02-08T13:13:29.338Z,1.00
2023-02-08T13:16:23.940Z,0.80
2023-02-08T13:18:57.862Z,0.80
2023-02-08T13:21:39.688Z,0.73
2023-02-08T13:24:40.187Z,1.20
2023-02-08T13:27:24.703Z,1.17
2023-02-08T13:29:55.710Z,1.17
2023-02-08T13:32:38.238Z,0.70
2023-02-08T13:35:32.667Z,2.03
2023-02-08T13:38:27.579Z,1.33
2023-02-08T13:41:16.854Z,1.20
2023-02-08T13:43:56.396Z,0.90
2023-02-08T13:46:29.700Z,1.20
2023-02-08T13:49:04.595Z,1.10
2023-02-08T13:51:35.229Z,0.77
2023-02-08T13:54:23.759Z,1.23
2023-02-08T13:56:55.891Z,0.93
2023-02-08T13:59:44.251Z,1.38
2023-02-08T14:02:26.435Z,1.08
2023-02-08T14:05:46.106Z,0.90
2023-02-08T14:08:39.788Z,0.85
2023-02-08T14:11:37.730Z,1.20
2023-02-08T14:17:03.833Z,0.90
2023-02-08T14:19:42.899Z,1.10
2023-02-08T14:22:17.372Z,1.27
2023-02-08T14:25:02.432Z,1.17
2023-02-08T14:27:46.650Z,1.98
2023-02-08T14:30:20.389Z,1.17
2023-02-08T14:33:13.834Z,1.08
2023-02-08T14:35:57.882Z,1.30
2023-02-08T14:38:46.312Z,1.13
2023-02-08T14:41:47.427Z,1.20
2023-02-08T14:44:51.515Z,1.23
2023-02-08T14:47:45.132Z,1.40
2023-02-08T14:50:31.996Z,1.30
2023-02-08T14:53:23.274Z,1.45
2023-02-08T14:56:09.176Z,1.20
2023-02-08T14:59:15.278Z,1.20
2023-02-08T15:01:55.610Z,1.27
2023-02-08T15:04:26.387Z,1.10
2023-02-08T15:07:18.463Z,1.42
2023-02-08T15:09:49.037Z,1.00
2023-02-08T15:12:58.732Z,1.45
2023-02-08T15:15:43.143Z,1.10
2023-02-08T15:18:27.168Z,1.30
2023-02-08T15:21:07.430Z,1.15
2023-02-08T15:23:40.807Z,1.08
2023-02-08T15:26:25.868Z,1.27
2023-02-08T15:28:56.372Z,1.00
2023-02-08T15:31:32.741Z,0.85
2023-02-08T15:36:39.033Z,1.00
2023-02-08T15:39:30.487Z,0.75
2023-02-08T15:42:01.947Z,0.75
2023-02-08T15:44:34.658Z,0.80
2023-02-08T15:47:12.203Z,0.82
2023-02-08T15:49:48.203Z,0.80
2023-02-08T15:52:22.170Z,1.05
2023-02-08T15:54:55.991Z,1.25
2023-02-08T15:57:32.832Z,1.08
2023-02-08T16:00:04.872Z,1.25
2023-02-08T16:02:39.679Z,0.80
2023-02-08T16:05:50.549Z,0.90
2023-02-08T16:08:37.311Z,0.95
2023-02-08T16:11:32.159Z,1.55
2023-02-08T16:14:27.042Z,1.50
2023-02-08T16:17:40.111Z,1.52
2023-02-08T16:20:37.913Z,1.70
2023-02-08T16:26:21.584Z,1.20
2023-02-08T16:28:59.538Z,1.17
2023-02-08T16:31:51.506Z,0.98
2023-02-08T16:34:30.486Z,1.85
2023-02-08T16:37:01.407Z,1.23
2023-02-08T16:39:59.298Z,1.20
2023-02-08T16:42:46.714Z,1.17
2023-02-08T16:45:20.793Z,1.08
2023-02-08T16:48:18.472Z,1.10
2023-02-08T16:50:53.070Z,1.00
2023-02-08T16:53:28.137Z,1.08
2023-02-08T16:56:04.304Z,1.02
2023-02-08T16:58:34.612Z,0.77
2023-02-08T17:01:10.197Z,1.10
2023-02-08T17:03:41.251Z,0.90
2023-02-08T17:06:25.996Z,1.10
2023-02-08T17:08:56.663Z,1.70
2023-02-08T17:11:27.219Z,1.27
2023-02-08T17:14:00.352Z,1.10
2023-02-08T17:16:37.834Z,1.02
2023-02-08T17:19:18.408Z,1.30
2023-02-08T17:21:48.930Z,1.13
2023-02-08T17:24:20.064Z,1.33
2023-02-08T17:26:56.504Z,1.30
2023-02-08T17:29:27.479Z,1.00
2023-02-08T17:32:02.792Z,1.00
2023-02-08T17:34:33.562Z,1.23
2023-02-08T17:37:04.241Z,1.10
2023-02-08T17:39:41.794Z,1.23
2023-02-08T17:42:14.170Z,1.02
2023-02-08T17:44:45.096Z,1.27
2023-02-08T17:47:18.964Z,1.38
2023-02-08T17:49:49.404Z,1.20
2023-02-08T17:52:21.363Z,1.25
2023-02-08T17:54:52.413Z,1.38
2023-02-08T17:57:28.605Z,1.10
2023-02-08T18:00:10.515Z,1.15
2023-02-08T18:02:44.542Z,1.10
2023-02-08T18:05:24.970Z,0.90
2023-02-08T18:07:57.295Z,1.45
2023-02-08T18:10:31.651Z,1.00
2023-02-08T18:13:02.005Z,1.60
2023-02-08T18:15:32.413Z,1.33
2023-02-08T18:18:02.763Z,1.58
2023-02-08T18:20:34.618Z,1.42
2023-02-08T18:23:05.398Z,1.30
2023-02-08T18:25:39.456Z,1.70
2023-02-08T18:28:16.689Z,1.38
2023-02-08T18:30:47.698Z,1.63
2023-02-08T18:33:18.324Z,1.45
2023-02-08T18:35:51.372Z,1.70
2023-02-08T18:38:29.260Z,1.63
2023-02-08T18:41:01.815Z,1.45
2023-02-08T18:43:32.135Z,1.63
2023-02-08T18:46:05.361Z,2.30
2023-02-08T18:48:36.987Z,1.60
2023-02-08T18:51:09.066Z,1.50
2023-02-08T18:53:42.469Z,1.65
2023-02-08T18:56:18.411Z,1.40
2023-02-08T18:58:48.680Z,1.65
2023-02-08T19:01:22.315Z,1.42
2023-02-08T19:03:53.935Z,1.30
2023-02-08T19:06:27.203Z,1.73
2023-02-08T19:09:12.136Z,1.33
2023-02-08T19:11:43.704Z,0.73
2023-02-08T19:14:18.955Z,1.00
2023-02-08T19:16:52.572Z,0.95
2023-02-08T19:19:23.360Z,1.60
2023-02-08T19:21:55.701Z,1.05
2023-02-08T19:24:26.763Z,1.50
2023-02-08T19:26:57.589Z,1.17
2023-02-08T19:29:28.764Z,1.00
2023-02-08T19:31:59.984Z,1.17
2023-02-08T19:34:30.475Z,1.30
2023-02-08T19:37:00.791Z,0.90
2023-02-08T19:39:31.515Z,1.15
2023-02-08T19:42:01.914Z,1.05
2023-02-08T19:44:32.614Z,1.27
2023-02-08T19:47:03.427Z,1.00
2023-02-08T19:49:34.309Z,1.23
2023-02-08T19:52:05.944Z,0.80
2023-02-08T19:54:38.245Z,0.70
2023-02-08T19:57:13.714Z,0.57
2023-02-08T19:59:46.746Z,0.60
2023-02-08T20:02:20.170Z,0.60
2023-02-08T20:04:50.935Z,1.13
2023-02-08T20:07:21.242Z,0.82
2023-02-08T20:09:51.543Z,0.70
2023-02-08T20:12:22.676Z,0.95
2023-02-08T20:14:52.992Z,0.93
2023-02-08T20:17:23.336Z,0.80
2023-02-08T20:19:54.136Z,0.98
2023-02-08T20:22:24.532Z,1.50
2023-02-08T20:24:54.897Z,0.95
2023-02-08T20:27:25.880Z,1.20
2023-02-08T20:29:58.524Z,1.05
2023-02-08T20:32:29.916Z,0.90
2023-02-08T20:35:00.548Z,1.08
2023-02-08T20:37:31.352Z,1.23
2023-02-08T20:40:01.815Z,1.30
2023-02-08T20:42:32.228Z,2.65
2023-02-08T20:45:02.653Z,1.63
2023-02-08T20:47:38.724Z,2.15
2023-02-08T20:50:19.139Z,1.92
2023-02-08T20:52:51.391Z,1.60
2023-02-08T20:55:22.155Z,2.45
2023-02-08T20:57:55.162Z,1.92
2023-02-08T21:00:33.540Z,1.73
2023-02-08T21:03:12.662Z,1.73
2023-02-08T21:05:43.385Z,1.80
2023-02-08T21:08:14.450Z,1.58
2023-02-08T21:10:45.477Z,1.65
2023-02-08T21:13:16.340Z,1.35
2023-02-08T21:15:47.675Z,1.52
2023-02-08T21:18:18.334Z,1.70
2023-02-08T21:20:48.593Z,1.40
2023-02-08T21:23:19.492Z,1.70
2023-02-08T21:25:49.817Z,1.30
2023-02-08T21:28:21.848Z,2.28
2023-02-08T21:31:04.838Z,1.88
2023-02-08T21:33:40.821Z,1.85
2023-02-08T21:36:17.688Z,2.00
2023-02-08T21:38:50.258Z,1.85
2023-02-08T21:41:39.151Z,1.77
2023-02-08T21:44:14.068Z,2.10
2023-02-08T21:46:44.782Z,2.55
2023-02-08T21:49:37.156Z,2.28
2023-02-08T21:55:20.947Z,2.00
2023-02-08T21:57:55.394Z,1.58
2023-02-08T22:00:27.913Z,1.80
2023-02-08T22:02:58.748Z,1.80
2023-02-08T22:05:49.785Z,1.30
2023-02-08T22:08:26.572Z,1.83
2023-02-08T22:11:07.635Z,1.70
2023-02-08T22:13:42.032Z,1.42
2023-02-08T22:16:12.793Z,1.98
2023-02-08T22:18:45.670Z,2.00
2023-02-08T22:21:16.041Z,1.85
2023-02-08T22:23:46.345Z,1.60
2023-02-08T22:26:19.061Z,2.00
2023-02-08T22:28:49.942Z,1.73
2023-02-08T22:31:21.952Z,2.05
2023-02-08T22:33:56.964Z,1.52
2023-02-08T22:36:27.300Z,2.00
2023-02-08T22:38:58.335Z,2.28
2023-02-08T22:41:35.462Z,1.92
2023-02-08T22:44:06.325Z,1.98
2023-02-08T22:46:38.656Z,1.85
2023-02-08T22:49:09.038Z,2.00
2023-02-08T22:51:44.697Z,1.90
2023-02-08T22:54:15.609Z,1.70
2023-02-08T22:56:52.812Z,1.60
2023-02-08T22:59:25.398Z,1.88
2023-02-08T23:01:57.315Z,2.53
2023-02-08T23:04:28.650Z,2.40
2023-02-08T23:07:04.772Z,2.00
2023-02-08T23:09:40.627Z,3.10
2023-02-08T23:12:11.242Z,3.10
2023-02-08T23:14:42.673Z,2.80
2023-02-08T23:17:20.518Z,2.85
2023-02-08T23:19:51.011Z,3.40
2023-02-08T23:22:21.852Z,2.97
2023-02-08T23:24:55.715Z,2.78
2023-02-08T23:27:28.223Z,3.30
2023-02-08T23:30:06.203Z,3.03
2023-02-08T23:32:41.278Z,3.55
2023-02-08T23:35:16.303Z,3.33
2023-02-08T23:37:47.188Z,3.97
2023-02-08T23:40:18.422Z,3.13
2023-02-08T23:42:49.188Z,3.45
2023-02-08T23:45:32.299Z,3.92
2023-02-08T23:48:10.495Z,3.35
2023-02-08T23:50:46.322Z,3.90
2023-02-08T23:53:17.359Z,3.53
2023-02-08T23:55:48.255Z,3.30
2023-02-08T23:58:20.368Z,4.30
